Rothwell, United Kingdom
Current Conditions -  °F | °C
As of 11:50 AM on Wednesday 26 Nov 2014 (Local Time) from EGXT Reporting Station
Haze Haze  
Wind Chill:   Ceiling: Unl
Heat Index:   Visibility: 0.75mi
Dew Point:   Wind: 8mph
Humidity: 100%   Direction: 70°ENE
Pressure: 29.85"   Gusts: NA
Location:  52.42°N, 0.8°W
Report Text: EGXT 261150Z 07007KT 1200 BR VV/// 07/07 Q1011 RED
Loading
Personal Weather Stations






























Interactive Weather Map New forecast layout! Learn more

10-Day Weather Forecast

Advertisements
Track Severe Weather on mobile